Terminal Aerodrome Forecast
Issued by NWS

Home | Current Version | Previous Version | Text Only | Print | Product List | Glossary On
Versions: 1 2 3 4 5 6 7 8 9 10 11 12 13 14 15
000
FTUS45 KABQ 240300 AAA
TAFAEG
TAF AMD
KAEG 240309Z 2403/2424 VRB05KT P6SM SKC
     FM241800 VRB06KT P6SM FEW080
     FM242300 14008KT P6SM SCT080 SCT200=

USA.gov is the U.S. government's official web portal to all federal, state and local government web resources and services.